sensor_id;sensor_type;location;lat;lon;timestamp;pressure;altitude;pressure_sealevel;temperature;humidity
7050;BME280;22263;52.260;10.548;2022-09-09T00:01:09;99912.06;;;14.89;100.00
7050;BME280;22263;52.260;10.548;2022-09-09T00:03:47;99925.56;;;14.91;100.00
7050;BME280;22263;52.260;10.548;2022-09-09T00:06:33;99920.03;;;14.87;100.00
7050;BME280;22263;52.260;10.548;2022-09-09T00:09:15;99923.59;;;14.88;100.00
7050;BME280;22263;52.260;10.548;2022-09-09T00:11:56;99918.97;;;14.77;100.00
7050;BME280;22263;52.260;10.548;2022-09-09T00:14:47;99924.88;;;14.83;100.00
7050;BME280;22263;52.260;10.548;2022-09-09T00:17:33;99928.09;;;14.81;100.00
7050;BME280;22263;52.260;10.548;2022-09-09T00:20:12;99914.09;;;14.85;100.00
7050;BME280;22263;52.260;10.548;2022-09-09T00:22:49;99922.78;;;14.91;100.00
7050;BME280;22263;52.260;10.548;2022-09-09T00:25:29;99925.13;;;14.92;100.00
7050;BME280;22263;52.260;10.548;2022-09-09T00:28:10;99925.13;;;14.92;100.00
7050;BME280;22263;52.260;10.548;2022-09-09T00:30:45;99921.28;;;14.82;100.00
7050;BME280;22263;52.260;10.548;2022-09-09T00:33:22;99916.81;;;14.89;100.00
7050;BME280;22263;52.260;10.548;2022-09-09T00:36:09;99915.69;;;14.86;100.00
7050;BME280;22263;52.260;10.548;2022-09-09T00:39:03;99913.19;;;14.92;100.00
7050;BME280;22263;52.260;10.548;2022-09-09T00:41:49;99918.47;;;14.86;100.00
7050;BME280;22263;52.260;10.548;2022-09-09T00:44:31;99904.06;;;14.91;100.00
7050;BME280;22263;52.260;10.548;2022-09-09T00:47:25;99923.44;;;14.98;100.00
7050;BME280;22263;52.260;10.548;2022-09-09T00:50:16;99915.47;;;15.00;100.00
7050;BME280;22263;52.260;10.548;2022-09-09T00:52:55;99915.88;;;14.99;100.00
7050;BME280;22263;52.260;10.548;2022-09-09T00:55:37;99913.47;;;15.01;100.00
7050;BME280;22263;52.260;10.548;2022-09-09T00:58:12;99909.09;;;15.00;100.00
7050;BME280;22263;52.260;10.548;2022-09-09T01:01:04;99898.44;;;14.95;100.00
7050;BME280;22263;52.260;10.548;2022-09-09T01:03:38;99912.31;;;14.98;100.00
7050;BME280;22263;52.260;10.548;2022-09-09T01:06:21;99914.53;;;15.07;100.00
7050;BME280;22263;52.260;10.548;2022-09-09T01:09:14;99906.91;;;14.88;100.00
7050;BME280;22263;52.260;10.548;2022-09-09T01:11:57;99926.22;;;14.98;100.00
7050;BME280;22263;52.260;10.548;2022-09-09T01:14:40;99916.41;;;14.90;100.00
7050;BME280;22263;52.260;10.548;2022-09-09T01:17:16;99926.69;;;14.93;100.00
7050;BME280;22263;52.260;10.548;2022-09-09T01:19:57;99927.56;;;14.90;100.00
7050;BME280;22263;52.260;10.548;2022-09-09T01:22:42;99929.47;;;14.93;100.00
7050;BME280;22263;52.260;10.548;2022-09-09T01:28:22;99934.56;;;14.98;100.00
7050;BME280;22263;52.260;10.548;2022-09-09T01:30:56;99924.22;;;14.99;100.00
7050;BME280;22263;52.260;10.548;2022-09-09T01:33:27;99933.00;;;14.97;100.00
7050;BME280;22263;52.260;10.548;2022-09-09T01:36:01;99932.97;;;15.01;100.00
7050;BME280;22263;52.260;10.548;2022-09-09T01:38:34;99925.44;;;14.98;100.00
7050;BME280;22263;52.260;10.548;2022-09-09T01:41:06;99926.59;;;15.00;100.00
7050;BME280;22263;52.260;10.548;2022-09-09T01:43:41;99926.94;;;15.02;100.00
7050;BME280;22263;52.260;10.548;2022-09-09T01:46:12;99923.09;;;14.96;100.00
7050;BME280;22263;52.260;10.548;2022-09-09T01:48:43;99917.63;;;14.89;100.00
7050;BME280;22263;52.260;10.548;2022-09-09T01:51:15;99922.31;;;14.96;100.00
7050;BME280;22263;52.260;10.548;2022-09-09T01:53:45;99916.34;;;14.94;100.00
7050;BME280;22263;52.260;10.548;2022-09-09T01:56:25;99914.78;;;14.93;100.00
7050;BME280;22263;52.260;10.548;2022-09-09T01:59:14;99919.19;;;14.90;100.00
7050;BME280;22263;52.260;10.548;2022-09-09T02:02:02;99910.91;;;14.87;100.00
7050;BME280;22263;52.260;10.548;2022-09-09T02:04:38;99913.00;;;14.79;100.00
7050;BME280;22263;52.260;10.548;2022-09-09T02:07:25;99912.22;;;14.78;100.00
7050;BME280;22263;52.260;10.548;2022-09-09T02:10:02;99916.25;;;14.74;100.00
7050;BME280;22263;52.260;10.548;2022-09-09T02:12:42;99919.44;;;14.72;100.00
7050;BME280;22263;52.260;10.548;2022-09-09T02:15:23;99914.28;;;14.74;100.00
7050;BME280;22263;52.260;10.548;2022-09-09T02:18:00;99929.81;;;14.72;100.00
7050;BME280;22263;52.260;10.548;2022-09-09T02:20:34;99919.16;;;14.67;100.00
7050;BME280;22263;52.260;10.548;2022-09-09T02:23:07;99923.16;;;14.66;100.00
7050;BME280;22263;52.260;10.548;2022-09-09T02:25:39;99925.09;;;14.69;100.00
7050;BME280;22263;52.260;10.548;2022-09-09T02:28:11;99919.19;;;14.63;100.00
7050;BME280;22263;52.260;10.548;2022-09-09T02:30:45;99924.03;;;14.59;100.00
7050;BME280;22263;52.260;10.548;2022-09-09T02:33:21;99912.97;;;14.56;100.00
7050;BME280;22263;52.260;10.548;2022-09-09T02:35:54;99917.00;;;14.51;100.00
7050;BME280;22263;52.260;10.548;2022-09-09T02:38:33;99915.47;;;14.47;100.00
7050;BME280;22263;52.260;10.548;2022-09-09T02:41:06;99919.84;;;14.48;100.00
7050;BME280;22263;52.260;10.548;2022-09-09T02:43:37;99908.38;;;14.42;100.00
7050;BME280;22263;52.260;10.548;2022-09-09T02:46:22;99915.53;;;14.43;100.00
7050;BME280;22263;52.260;10.548;2022-09-09T02:49:00;99921.78;;;14.51;100.00
7050;BME280;22263;52.260;10.548;2022-09-09T02:51:37;99918.72;;;14.42;100.00
7050;BME280;22263;52.260;10.548;2022-09-09T02:54:16;99918.59;;;14.49;100.00
7050;BME280;22263;52.260;10.548;2022-09-09T02:56:51;99914.56;;;14.53;100.00
7050;BME280;22263;52.260;10.548;2022-09-09T02:59:25;99910.19;;;14.56;100.00
7050;BME280;22263;52.260;10.548;2022-09-09T03:02:01;99918.13;;;14.57;100.00
7050;BME280;22263;52.260;10.548;2022-09-09T03:04:32;99917.78;;;14.52;100.00
7050;BME280;22263;52.260;10.548;2022-09-09T03:07:04;99917.66;;;14.59;100.00
7050;BME280;22263;52.260;10.548;2022-09-09T03:09:35;99908.59;;;14.55;100.00
7050;BME280;22263;52.260;10.548;2022-09-09T03:12:07;99909.75;;;14.57;100.00
7050;BME280;22263;52.260;10.548;2022-09-09T03:14:42;99908.91;;;14.60;100.00
7050;BME280;22263;52.260;10.548;2022-09-09T03:17:17;99908.97;;;14.57;100.00
7050;BME280;22263;52.260;10.548;2022-09-09T03:19:48;99897.88;;;14.53;100.00
7050;BME280;22263;52.260;10.548;2022-09-09T03:22:21;99909.75;;;14.57;100.00
7050;BME280;22263;52.260;10.548;2022-09-09T03:24:53;99912.16;;;14.55;100.00
7050;BME280;22263;52.260;10.548;2022-09-09T03:27:23;99914.94;;;14.55;100.00
7050;BME280;22263;52.260;10.548;2022-09-09T03:29:54;99911.44;;;14.51;100.00
7050;BME280;22263;52.260;10.548;2022-09-09T03:32:28;99915.00;;;14.52;100.00
7050;BME280;22263;52.260;10.548;2022-09-09T03:34:58;99923.31;;;14.55;100.00
7050;BME280;22263;52.260;10.548;2022-09-09T03:37:28;99918.53;;;14.56;100.00
7050;BME280;22263;52.260;10.548;2022-09-09T03:40:01;99924.03;;;14.59;100.00
7050;BME280;22263;52.260;10.548;2022-09-09T03:42:31;99920.94;;;14.54;100.00
7050;BME280;22263;52.260;10.548;2022-09-09T03:45:04;99921.72;;;14.54;100.00
7050;BME280;22263;52.260;10.548;2022-09-09T03:47:38;99919.31;;;14.56;100.00
7050;BME280;22263;52.260;10.548;2022-09-09T03:50:09;99918.91;;;14.58;100.00
7050;BME280;22263;52.260;10.548;2022-09-09T03:52:40;99918.84;;;14.61;100.00
7050;BME280;22263;52.260;10.548;2022-09-09T03:55:10;99916.84;;;14.62;100.00
7050;BME280;22263;52.260;10.548;2022-09-09T03:57:42;99915.22;;;14.64;100.00
7050;BME280;22263;52.260;10.548;2022-09-09T04:00:13;99918.00;;;14.64;100.00
7050;BME280;22263;52.260;10.548;2022-09-09T04:02:45;99905.28;;;14.63;100.00
7050;BME280;22263;52.260;10.548;2022-09-09T04:05:16;99900.16;;;14.62;100.00
7050;BME280;22263;52.260;10.548;2022-09-09T04:07:45;99908.50;;;14.62;100.00
7050;BME280;22263;52.260;10.548;2022-09-09T04:10:15;99915.16;;;14.68;100.00
7050;BME280;22263;52.260;10.548;2022-09-09T04:12:46;99915.06;;;14.75;100.00
7050;BME280;22263;52.260;10.548;2022-09-09T04:15:16;99914.66;;;14.76;100.00
7050;BME280;22263;52.260;10.548;2022-09-09T04:17:51;99909.88;;;14.77;100.00
7050;BME280;22263;52.260;10.548;2022-09-09T04:20:21;99915.00;;;14.78;100.00
7050;BME280;22263;52.260;10.548;2022-09-09T04:22:51;99918.16;;;14.80;100.00
7050;BME280;22263;52.260;10.548;2022-09-09T04:25:21;99918.09;;;14.84;100.00
7050;BME280;22263;52.260;10.548;2022-09-09T04:27:53;99915.38;;;14.80;100.00
7050;BME280;22263;52.260;10.548;2022-09-09T04:30:23;99914.84;;;14.62;100.00
7050;BME280;22263;52.260;10.548;2022-09-09T04:32:58;99923.78;;;14.77;100.00
7050;BME280;22263;52.260;10.548;2022-09-09T04:35:29;99923.03;;;14.73;100.00
7050;BME280;22263;52.260;10.548;2022-09-09T04:37:59;99923.03;;;14.73;100.00
7050;BME280;22263;52.260;10.548;2022-09-09T04:40:33;99921.03;;;14.73;100.00
7050;BME280;22263;52.260;10.548;2022-09-09T04:43:21;99908.84;;;14.64;100.00
7050;BME280;22263;52.260;10.548;2022-09-09T04:45:53;99933.66;;;14.81;100.00
7050;BME280;22263;52.260;10.548;2022-09-09T04:48:31;99915.31;;;14.84;100.00
7050;BME280;22263;52.260;10.548;2022-09-09T04:51:03;99936.16;;;14.99;100.00
7050;BME280;22263;52.260;10.548;2022-09-09T04:53:33;99939.13;;;15.12;100.00
7050;BME280;22263;52.260;10.548;2022-09-09T04:56:06;99936.03;;;15.06;100.00
7050;BME280;22263;52.260;10.548;2022-09-09T04:58:37;99931.09;;;15.17;100.00
7050;BME280;22263;52.260;10.548;2022-09-09T05:01:09;99941.03;;;15.18;100.00
7050;BME280;22263;52.260;10.548;2022-09-09T05:03:42;99931.56;;;15.36;100.00
7050;BME280;22263;52.260;10.548;2022-09-09T05:06:13;99930.97;;;15.48;100.00
7050;BME280;22263;52.260;10.548;2022-09-09T05:08:45;99932.09;;;15.50;100.00
7050;BME280;22263;52.260;10.548;2022-09-09T05:11:16;99928.78;;;15.59;100.00
7050;BME280;22263;52.260;10.548;2022-09-09T05:13:48;99926.28;;;15.64;100.00
7050;BME280;22263;52.260;10.548;2022-09-09T05:16:19;99927.16;;;15.61;100.00
7050;BME280;22263;52.260;10.548;2022-09-09T05:18:52;99926.28;;;15.64;100.00
7050;BME280;22263;52.260;10.548;2022-09-09T05:21:23;99929.22;;;15.57;100.00
7050;BME280;22263;52.260;10.548;2022-09-09T05:23:54;99921.50;;;15.65;100.00
7050;BME280;22263;52.260;10.548;2022-09-09T05:26:24;99923.19;;;15.59;100.00
7050;BME280;22263;52.260;10.548;2022-09-09T05:28:55;99917.03;;;15.71;100.00
7050;BME280;22263;52.260;10.548;2022-09-09T05:31:30;99930.81;;;15.78;100.00
7050;BME280;22263;52.260;10.548;2022-09-09T05:34:03;99916.88;;;15.78;100.00
7050;BME280;22263;52.260;10.548;2022-09-09T05:36:32;99931.06;;;15.87;100.00
7050;BME280;22263;52.260;10.548;2022-09-09T05:39:03;99928.97;;;15.91;100.00
7050;BME280;22263;52.260;10.548;2022-09-09T05:41:33;99924.38;;;15.81;100.00
7050;BME280;22263;52.260;10.548;2022-09-09T05:44:03;99940.13;;;15.91;100.00
7050;BME280;22263;52.260;10.548;2022-09-09T05:46:34;99936.47;;;15.94;100.00
7050;BME280;22263;52.260;10.548;2022-09-09T05:49:07;99939.84;;;16.05;100.00
7050;BME280;22263;52.260;10.548;2022-09-09T05:51:37;99938.28;;;16.04;100.00
7050;BME280;22263;52.260;10.548;2022-09-09T05:54:06;99946.72;;;16.01;100.00
7050;BME280;22263;52.260;10.548;2022-09-09T05:56:36;99948.56;;;16.07;100.00
7050;BME280;22263;52.260;10.548;2022-09-09T05:59:06;99948.00;;;16.16;100.00
7050;BME280;22263;52.260;10.548;2022-09-09T06:01:37;99939.28;;;16.14;100.00
7050;BME280;22263;52.260;10.548;2022-09-09T06:04:10;99953.22;;;16.14;100.00
7050;BME280;22263;52.260;10.548;2022-09-09T06:06:40;99947.63;;;15.94;100.00
7050;BME280;22263;52.260;10.548;2022-09-09T06:09:10;99945.94;;;16.00;100.00
7050;BME280;22263;52.260;10.548;2022-09-09T06:11:40;99949.28;;;16.11;100.00
7050;BME280;22263;52.260;10.548;2022-09-09T06:14:10;99952.34;;;16.17;100.00
7050;BME280;22263;52.260;10.548;2022-09-09T06:16:40;99952.13;;;16.28;100.00
7050;BME280;22263;52.260;10.548;2022-09-09T06:19:13;99947.63;;;16.34;100.00
7050;BME280;22263;52.260;10.548;2022-09-09T06:21:45;99951.50;;;16.40;100.00
7050;BME280;22263;52.260;10.548;2022-09-09T06:24:17;99926.78;;;16.38;100.00
7050;BME280;22263;52.260;10.548;2022-09-09T06:26:47;99938.03;;;16.54;100.00
7050;BME280;22263;52.260;10.548;2022-09-09T06:29:17;99938.66;;;16.62;100.00
7050;BME280;22263;52.260;10.548;2022-09-09T06:31:47;99941.84;;;16.80;100.00
7050;BME280;22263;52.260;10.548;2022-09-09T06:34:19;99926.56;;;16.85;100.00
7050;BME280;22263;52.260;10.548;2022-09-09T06:36:49;99942.47;;;16.88;100.00
7050;BME280;22263;52.260;10.548;2022-09-09T06:39:22;99948.16;;;17.17;100.00
7050;BME280;22263;52.260;10.548;2022-09-09T06:41:52;99951.47;;;17.28;100.00
7050;BME280;22263;52.260;10.548;2022-09-09T06:44:25;99939.84;;;17.29;100.00
7050;BME280;22263;52.260;10.548;2022-09-09T06:47:01;99945.34;;;17.33;100.00
7050;BME280;22263;52.260;10.548;2022-09-09T06:49:34;99948.56;;;17.31;100.00
7050;BME280;22263;52.260;10.548;2022-09-09T06:52:04;99949.13;;;17.59;100.00
7050;BME280;22263;52.260;10.548;2022-09-09T06:54:36;99937.28;;;17.51;100.00
7050;BME280;22263;52.260;10.548;2022-09-09T06:57:05;99940.19;;;17.93;100.00
7050;BME280;22263;52.260;10.548;2022-09-09T06:59:56;99943.41;;;18.20;100.00
7050;BME280;22263;52.260;10.548;2022-09-09T07:02:26;99939.25;;;18.53;100.00
7050;BME280;22263;52.260;10.548;2022-09-09T07:04:59;99922.34;;;19.07;100.00
7050;BME280;22263;52.260;10.548;2022-09-09T07:07:28;99924.72;;;19.43;100.00
7050;BME280;22263;52.260;10.548;2022-09-09T07:09:58;99916.25;;;19.47;100.00
7050;BME280;22263;52.260;10.548;2022-09-09T07:12:28;99909.91;;;19.90;100.00
7050;BME280;22263;52.260;10.548;2022-09-09T07:14:58;99922.94;;;20.06;100.00
7050;BME280;22263;52.260;10.548;2022-09-09T07:17:29;99911.75;;;20.15;100.00
7050;BME280;22263;52.260;10.548;2022-09-09T07:20:04;99914.19;;;20.25;100.00
7050;BME280;22263;52.260;10.548;2022-09-09T07:22:35;99916.63;;;20.36;100.00
7050;BME280;22263;52.260;10.548;2022-09-09T07:25:06;99920.06;;;20.71;100.00
7050;BME280;22263;52.260;10.548;2022-09-09T07:27:38;99915.00;;;20.97;100.00
7050;BME280;22263;52.260;10.548;2022-09-09T07:30:11;99912.97;;;20.97;100.00
7050;BME280;22263;52.260;10.548;2022-09-09T07:32:51;99925.22;;;20.72;100.00
7050;BME280;22263;52.260;10.548;2022-09-09T07:35:28;99915.25;;;21.20;100.00
7050;BME280;22263;52.260;10.548;2022-09-09T07:44:36;99928.59;;;21.38;100.00
7050;BME280;22263;52.260;10.548;2022-09-09T07:47:06;99923.88;;;21.26;100.00
7050;BME280;22263;52.260;10.548;2022-09-09T07:49:36;99926.59;;;21.08;100.00
7050;BME280;22263;52.260;10.548;2022-09-09T07:52:08;99932.84;;;21.03;100.00
7050;BME280;22263;52.260;10.548;2022-09-09T07:54:42;99925.03;;;21.07;100.00
7050;BME280;22263;52.260;10.548;2022-09-09T07:57:12;99934.09;;;20.62;100.00
7050;BME280;22263;52.260;10.548;2022-09-09T07:59:42;99933.19;;;20.74;100.00
7050;BME280;22263;52.260;10.548;2022-09-09T08:02:12;99916.66;;;21.25;100.00
7050;BME280;22263;52.260;10.548;2022-09-09T08:04:42;99925.34;;;21.67;100.00
7050;BME280;22263;52.260;10.548;2022-09-09T08:07:15;99927.81;;;21.92;100.00
7050;BME280;22263;52.260;10.548;2022-09-09T08:09:45;99930.53;;;21.96;100.00
7050;BME280;22263;52.260;10.548;2022-09-09T08:12:15;99931.44;;;22.11;100.00
7050;BME280;22263;52.260;10.548;2022-09-09T08:14:45;99928.81;;;22.68;100.00
7050;BME280;22263;52.260;10.548;2022-09-09T08:17:16;99938.88;;;23.34;100.00
7050;BME280;22263;52.260;10.548;2022-09-09T08:19:46;99934.16;;;23.79;100.00
7050;BME280;22263;52.260;10.548;2022-09-09T08:22:18;99945.09;;;23.48;100.00
7050;BME280;22263;52.260;10.548;2022-09-09T08:24:49;99944.16;;;22.76;100.00
7050;BME280;22263;52.260;10.548;2022-09-09T08:27:20;99944.63;;;21.96;100.00
7050;BME280;22263;52.260;10.548;2022-09-09T08:29:51;99946.91;;;21.88;100.00
7050;BME280;22263;52.260;10.548;2022-09-09T08:32:24;99951.38;;;21.31;100.00
7050;BME280;22263;52.260;10.548;2022-09-09T08:34:54;99952.81;;;20.96;100.00
7050;BME280;22263;52.260;10.548;2022-09-09T08:37:29;99960.75;;;20.88;100.00
7050;BME280;22263;52.260;10.548;2022-09-09T08:39:59;99952.09;;;21.81;100.00
7050;BME280;22263;52.260;10.548;2022-09-09T08:42:37;99960.03;;;21.55;100.00
7050;BME280;22263;52.260;10.548;2022-09-09T08:45:21;99963.78;;;23.36;100.00
7050;BME280;22263;52.260;10.548;2022-09-09T08:48:02;99960.59;;;23.90;100.00
7050;BME280;22263;52.260;10.548;2022-09-09T08:50:36;99959.13;;;24.19;100.00
7050;BME280;22263;52.260;10.548;2022-09-09T08:53:15;99956.63;;;24.36;100.00
7050;BME280;22263;52.260;10.548;2022-09-09T08:55:48;99959.25;;;24.24;100.00
7050;BME280;22263;52.260;10.548;2022-09-09T08:58:21;99967.31;;;25.19;100.00
7050;BME280;22263;52.260;10.548;2022-09-09T09:01:15;99968.81;;;24.71;100.00
7050;BME280;22263;52.260;10.548;2022-09-09T09:03:54;99967.97;;;23.73;100.00
7050;BME280;22263;52.260;10.548;2022-09-09T09:06:35;99964.47;;;22.89;100.00
7050;BME280;22263;52.260;10.548;2022-09-09T09:09:20;99964.56;;;23.03;100.00
7050;BME280;22263;52.260;10.548;2022-09-09T09:11:52;99951.53;;;23.86;100.00
7050;BME280;22263;52.260;10.548;2022-09-09T09:14:29;99954.66;;;25.70;100.00
7050;BME280;22263;52.260;10.548;2022-09-09T09:17:03;99945.94;;;26.20;97.05
7050;BME280;22263;52.260;10.548;2022-09-09T09:19:35;99950.84;;;26.71;96.02
7050;BME280;22263;52.260;10.548;2022-09-09T09:22:16;99956.78;;;26.99;92.08
7050;BME280;22263;52.260;10.548;2022-09-09T09:24:54;99958.16;;;26.83;86.56
7050;BME280;22263;52.260;10.548;2022-09-09T09:27:30;99957.03;;;26.69;88.25
7050;BME280;22263;52.260;10.548;2022-09-09T09:30:13;99957.34;;;27.08;85.40
7050;BME280;22263;52.260;10.548;2022-09-09T09:32:57;99958.09;;;26.77;89.61
7050;BME280;22263;52.260;10.548;2022-09-09T09:35:28;99963.44;;;26.96;89.60
7050;BME280;22263;52.260;10.548;2022-09-09T09:38:13;99971.25;;;27.06;84.11
7050;BME280;22263;52.260;10.548;2022-09-09T09:47:31;99964.28;;;27.44;79.64
7050;BME280;22263;52.260;10.548;2022-09-09T09:50:00;99954.56;;;25.85;93.21
7050;BME280;22263;52.260;10.548;2022-09-09T09:52:31;99956.09;;;26.52;90.53
7050;BME280;22263;52.260;10.548;2022-09-09T09:55:04;99971.69;;;25.21;96.47
7050;BME280;22263;52.260;10.548;2022-09-09T09:57:43;99969.50;;;24.51;100.00
7050;BME280;22263;52.260;10.548;2022-09-09T10:00:15;99964.41;;;23.87;100.00
7050;BME280;22263;52.260;10.548;2022-09-09T10:02:50;99969.34;;;23.78;100.00
7050;BME280;22263;52.260;10.548;2022-09-09T10:05:21;99958.19;;;23.27;100.00
7050;BME280;22263;52.260;10.548;2022-09-09T10:08:02;99954.81;;;23.46;100.00
7050;BME280;22263;52.260;10.548;2022-09-09T10:13:29;99955.06;;;24.64;100.00
7050;BME280;22263;52.260;10.548;2022-09-09T10:16:13;99946.88;;;24.51;100.00
7050;BME280;22263;52.260;10.548;2022-09-09T10:18:58;99941.63;;;23.91;100.00
7050;BME280;22263;52.260;10.548;2022-09-09T10:30:51;99950.78;;;24.68;100.00
7050;BME280;22263;52.260;10.548;2022-09-09T10:33:32;99943.56;;;24.38;100.00
7050;BME280;22263;52.260;10.548;2022-09-09T10:36:13;99934.41;;;24.87;100.00
7050;BME280;22263;52.260;10.548;2022-09-09T10:38:52;99916.41;;;26.06;93.53
7050;BME280;22263;52.260;10.548;2022-09-09T10:41:32;99924.91;;;26.06;90.42
7050;BME280;22263;52.260;10.548;2022-09-09T10:47:14;99935.34;;;24.84;97.61
7050;BME280;22263;52.260;10.548;2022-09-09T10:50:07;99925.69;;;25.60;97.22
7050;BME280;22263;52.260;10.548;2022-09-09T10:52:52;99920.31;;;27.34;84.92
7050;BME280;22263;52.260;10.548;2022-09-09T10:55:31;99930.25;;;27.50;75.90
7050;BME280;22263;52.260;10.548;2022-09-09T10:58:04;99920.91;;;26.70;74.11
7050;BME280;22263;52.260;10.548;2022-09-09T11:00:39;99922.25;;;25.77;82.36
7050;BME280;22263;52.260;10.548;2022-09-09T11:03:16;99913.97;;;24.98;89.16
7050;BME280;22263;52.260;10.548;2022-09-09T11:05:49;99926.59;;;24.38;92.90
7050;BME280;22263;52.260;10.548;2022-09-09T11:08:25;99922.75;;;23.59;99.84
7050;BME280;22263;52.260;10.548;2022-09-09T11:11:00;99916.28;;;23.34;100.00
7050;BME280;22263;52.260;10.548;2022-09-09T11:13:36;99916.88;;;23.15;100.00
7050;BME280;22263;52.260;10.548;2022-09-09T11:16:17;99917.41;;;23.28;100.00
7050;BME280;22263;52.260;10.548;2022-09-09T11:18:50;99909.31;;;24.07;100.00
7050;BME280;22263;52.260;10.548;2022-09-09T11:21:27;99903.19;;;25.16;97.20
7050;BME280;22263;52.260;10.548;2022-09-09T11:24:04;99899.34;;;25.19;94.52
7050;BME280;22263;52.260;10.548;2022-09-09T11:26:41;99899.06;;;24.97;96.14
7050;BME280;22263;52.260;10.548;2022-09-09T11:29:33;99904.75;;;24.53;98.02
7050;BME280;22263;52.260;10.548;2022-09-09T11:32:21;99913.56;;;23.87;99.21
7050;BME280;22263;52.260;10.548;2022-09-09T11:35:17;99910.16;;;23.60;99.86
7050;BME280;22263;52.260;10.548;2022-09-09T11:40:58;99929.22;;;23.50;100.00
7050;BME280;22263;52.260;10.548;2022-09-09T11:43:37;99919.41;;;23.60;100.00
7050;BME280;22263;52.260;10.548;2022-09-09T11:46:08;99922.16;;;23.69;100.00
7050;BME280;22263;52.260;10.548;2022-09-09T11:48:40;99922.06;;;23.64;100.00
7050;BME280;22263;52.260;10.548;2022-09-09T11:51:25;99926.78;;;23.81;100.00
7050;BME280;22263;52.260;10.548;2022-09-09T11:53:58;99927.66;;;23.73;100.00
7050;BME280;22263;52.260;10.548;2022-09-09T11:56:33;99926.28;;;23.68;100.00
7050;BME280;22263;52.260;10.548;2022-09-09T11:59:19;99930.66;;;23.45;100.00
7050;BME280;22263;52.260;10.548;2022-09-09T12:01:50;99922.44;;;23.95;100.00
7050;BME280;22263;52.260;10.548;2022-09-09T12:04:32;99922.13;;;24.17;98.77
7050;BME280;22263;52.260;10.548;2022-09-09T12:07:32;99922.19;;;24.22;99.47
7050;BME280;22263;52.260;10.548;2022-09-09T12:10:05;99911.88;;;24.34;98.81
7050;BME280;22263;52.260;10.548;2022-09-09T12:12:54;99910.50;;;24.73;97.93
7050;BME280;22263;52.260;10.548;2022-09-09T12:15:27;99906.09;;;25.22;94.60
7050;BME280;22263;52.260;10.548;2022-09-09T12:17:59;99893.63;;;24.64;96.70
7050;BME280;22263;52.260;10.548;2022-09-09T12:20:34;99889.91;;;24.88;95.60
7050;BME280;22263;52.260;10.548;2022-09-09T12:23:27;99891.63;;;24.85;93.29
7050;BME280;22263;52.260;10.548;2022-09-09T12:26:11;99893.88;;;24.96;92.62
7050;BME280;22263;52.260;10.548;2022-09-09T12:28:55;99903.03;;;25.60;87.11
7050;BME280;22263;52.260;10.548;2022-09-09T12:31:33;99907.84;;;25.54;86.45
7050;BME280;22263;52.260;10.548;2022-09-09T12:34:14;99910.69;;;25.19;84.67
7050;BME280;22263;52.260;10.548;2022-09-09T12:36:53;99891.03;;;25.71;83.43
7050;BME280;22263;52.260;10.548;2022-09-09T12:39:30;99882.03;;;26.81;72.98
7050;BME280;22263;52.260;10.548;2022-09-09T12:42:03;99896.78;;;26.85;75.11
7050;BME280;22263;52.260;10.548;2022-09-09T12:44:36;99893.03;;;26.11;71.34
7050;BME280;22263;52.260;10.548;2022-09-09T12:47:06;99898.66;;;24.75;81.51
7050;BME280;22263;52.260;10.548;2022-09-09T12:49:38;99902.69;;;24.68;80.79
7050;BME280;22263;52.260;10.548;2022-09-09T12:52:16;99901.31;;;24.79;81.91
7050;BME280;22263;52.260;10.548;2022-09-09T12:54:47;99895.47;;;25.98;72.11
7050;BME280;22263;52.260;10.548;2022-09-09T12:57:18;99884.72;;;26.28;69.94
7050;BME280;22263;52.260;10.548;2022-09-09T12:59:51;99886.78;;;26.27;67.77
7050;BME280;22263;52.260;10.548;2022-09-09T13:02:23;99892.31;;;26.42;64.45
7050;BME280;22263;52.260;10.548;2022-09-09T13:05:06;99883.22;;;26.95;66.53
7050;BME280;22263;52.260;10.548;2022-09-09T13:07:38;99883.00;;;27.58;65.28
7050;BME280;22263;52.260;10.548;2022-09-09T13:10:11;99879.91;;;27.56;56.79
7050;BME280;22263;52.260;10.548;2022-09-09T13:13:02;99903.75;;;27.21;61.96
7050;BME280;22263;52.260;10.548;2022-09-09T13:15:35;99903.06;;;26.95;71.68
7050;BME280;22263;52.260;10.548;2022-09-09T13:18:10;99900.13;;;26.01;82.86
7050;BME280;22263;52.260;10.548;2022-09-09T13:20:46;99901.50;;;25.45;85.60
7050;BME280;22263;52.260;10.548;2022-09-09T13:23:20;99905.88;;;24.91;89.81
7050;BME280;22263;52.260;10.548;2022-09-09T13:25:56;99902.63;;;24.19;96.05
7050;BME280;22263;52.260;10.548;2022-09-09T13:28:27;99896.50;;;23.82;100.00
7050;BME280;22263;52.260;10.548;2022-09-09T13:31:05;99896.03;;;23.83;100.00
7050;BME280;22263;52.260;10.548;2022-09-09T13:33:36;99886.03;;;24.56;100.00
7050;BME280;22263;52.260;10.548;2022-09-09T13:36:08;99874.44;;;25.03;98.35
7050;BME280;22263;52.260;10.548;2022-09-09T13:38:40;99875.00;;;25.88;96.57
7050;BME280;22263;52.260;10.548;2022-09-09T13:41:23;99871.69;;;25.90;96.25
7050;BME280;22263;52.260;10.548;2022-09-09T13:43:53;99871.44;;;26.19;94.96
7050;BME280;22263;52.260;10.548;2022-09-09T13:46:32;99877.72;;;25.16;98.62
7050;BME280;22263;52.260;10.548;2022-09-09T13:49:19;99883.31;;;24.47;99.12
7050;BME280;22263;52.260;10.548;2022-09-09T13:51:51;99881.16;;;24.27;100.00
7050;BME280;22263;52.260;10.548;2022-09-09T13:54:21;99884.69;;;25.01;100.00
7050;BME280;22263;52.260;10.548;2022-09-09T13:56:51;99877.22;;;25.79;94.43
7050;BME280;22263;52.260;10.548;2022-09-09T13:59:23;99868.59;;;25.68;91.89
7050;BME280;22263;52.260;10.548;2022-09-09T14:02:17;99870.09;;;26.15;84.57
7050;BME280;22263;52.260;10.548;2022-09-09T14:04:48;99872.34;;;26.31;77.46
7050;BME280;22263;52.260;10.548;2022-09-09T14:07:22;99873.75;;;27.09;73.90
7050;BME280;22263;52.260;10.548;2022-09-09T14:09:51;99870.41;;;26.79;70.95